FNMA

Malanje

Malanje, Angola
METAR FNMA 201500Z 03006KT 9999 BKN022 FEW025CB 29/26 Q1012
Observed Flight Rules
Oct-20 @ 15:00 UTC (5 hours ago) Marginal Visual Flight Rules
Wind Visibility Clouds
30° at 6 knots 10,000+ meters
  • Broken at 2,200' AGL
  • Few at 2,500' AGL
Temperatures Readings
Current 29°C / 84°F
Dewpoint 26°C / 79°F
Humidity 84%
Altimeter 29.88" Hg
Pressure 1012 hPa
Elevation 1173
METAR FNMA 201500Z 03006KT 9999 BKN022 FEW025CB 29/26 Q1012
Observed Flight Rules
Oct-20 @ 15:00 UTC
(5 hours ago)
MVFR
Wind Visibility
30° at 6 knots 10,000+ meters
Clouds
  • Broken at 2,200' AGL
  • Few at 2,500' AGL
Temperature Dewpoint
29°C / 84°F 26°C / 79°F
Humidity Altimeter Pressure
84% 29.88" Hg 1012 hPa